Time;durP1;ratioP1;P1;durP2;ratioP2;P2;SDS_P1;SDS_P2;PMS_P1;PMS_P2;Temp;Humidity;BMP_temperature;BMP_pressure;BME280_temperature;BME280_humidity;BME280_pressure;Samples;Min_cycle;Max_cycle;Signal;HPM_P1;HPM_P2
2022/04/19 00:01:52;;;;;;;6.00;4.30;;;;;;;;;;5044151;28;20431;-73
2022/04/19 00:04:19;;;;;;;5.10;4.57;;;;;;;;;;5048408;28;20937;-73
2022/04/19 00:06:45;;;;;;;3.33;3.13;;;;;;;;;;5044886;28;20430;-73
2022/04/19 00:09:11;;;;;;;2.93;2.83;;;;;;;;;;5045176;28;20445;-73
2022/04/19 00:11:37;;;;;;;2.93;2.70;;;;;;;;;;5047808;28;20438;-73
2022/04/19 00:14:03;;;;;;;3.27;2.80;;;;;;;;;;5046847;28;20546;-73
2022/04/19 00:16:29;;;;;;;2.30;2.20;;;;;;;;;;5044199;28;20423;-73
2022/04/19 00:18:55;;;;;;;2.03;2.03;;;;;;;;;;5044502;28;20430;-72
2022/04/19 00:21:21;;;;;;;1.73;1.73;;;;;;;;;;5046797;28;20495;-73
2022/04/19 00:23:49;;;;;;;1.73;1.73;;;;;;;;;;5044905;28;20517;-72
2022/04/19 00:26:15;;;;;;;2.20;2.10;;;;;;;;;;5047775;28;20445;-73
2022/04/19 00:28:41;;;;;;;1.83;1.80;;;;;;;;;;5061507;28;20434;-73
2022/04/19 00:31:07;;;;;;;11.10;2.27;;;;;;;;;;5047665;28;20437;-73
2022/04/19 00:33:33;;;;;;;1.90;1.90;;;;;;;;;;5046112;28;20482;-72
2022/04/19 00:35:59;;;;;;;2.07;2.07;;;;;;;;;;5046305;28;20449;-73
2022/04/19 00:38:25;;;;;;;2.20;2.03;;;;;;;;;;5046114;28;20842;-73
2022/04/19 00:40:52;;;;;;;3.13;2.13;;;;;;;;;;5049341;28;20422;-73
2022/04/19 00:43:18;;;;;;;1.87;1.77;;;;;;;;;;5049434;28;20461;-73
2022/04/19 00:45:44;;;;;;;2.73;1.63;;;;;;;;;;5046724;28;20458;-73
2022/04/19 00:48:10;;;;;;;1.97;1.87;;;;;;;;;;5045398;28;20510;-73
2022/04/19 00:50:36;;;;;;;1.60;1.60;;;;;;;;;;5045211;28;20423;-73
2022/04/19 00:53:03;;;;;;;3.27;1.93;;;;;;;;;;5048243;28;20517;-72
2022/04/19 00:55:30;;;;;;;1.60;1.60;;;;;;;;;;5047317;28;20537;-73
2022/04/19 00:57:57;;;;;;;2.77;2.20;;;;;;;;;;5046407;28;20436;-73
2022/04/19 01:00:24;;;;;;;2.63;2.20;;;;;;;;;;5047734;28;20427;-73
2022/04/19 01:02:50;;;;;;;2.70;2.50;;;;;;;;;;5049277;28;20461;-73
2022/04/19 01:05:16;;;;;;;2.33;2.20;;;;;;;;;;5041467;28;20475;-73
2022/04/19 01:07:45;;;;;;;1.87;1.87;;;;;;;;;;5043207;28;20438;-73
2022/04/19 01:10:11;;;;;;;2.13;2.03;;;;;;;;;;5040970;28;20915;-73
2022/04/19 01:15:22;;;;;;;3.70;2.10;;;;;;;;;;5046910;28;20449;-73
2022/04/19 01:17:48;;;;;;;1.93;1.83;;;;;;;;;;5046218;28;20930;-73
2022/04/19 01:20:15;;;;;;;2.10;2.00;;;;;;;;;;5049246;28;20434;-73
2022/04/19 01:22:41;;;;;;;1.33;1.33;;;;;;;;;;5044606;28;20442;-73
2022/04/19 01:25:08;;;;;;;3.33;1.70;;;;;;;;;;5045852;28;20487;-73
2022/04/19 01:27:34;;;;;;;2.30;2.20;;;;;;;;;;5048991;28;20426;-74
2022/04/19 01:30:03;;;;;;;2.30;2.20;;;;;;;;;;5051531;28;20415;-73
2022/04/19 01:32:30;;;;;;;3.10;1.90;;;;;;;;;;5047798;28;20462;-73
2022/04/19 01:35:06;;;;;;;2.13;1.80;;;;;;;;;;5051368;28;20525;-73
2022/04/19 01:37:35;;;;;;;2.40;2.27;;;;;;;;;;5050286;28;20442;-73
2022/04/19 01:40:16;;;;;;;1.80;1.80;;;;;;;;;;5050487;28;20981;-73
2022/04/19 01:42:52;;;;;;;1.30;1.30;;;;;;;;;;5051134;28;20432;-73
2022/04/19 01:45:19;;;;;;;4.00;2.30;;;;;;;;;;5051029;28;20433;-73
2022/04/19 01:47:46;;;;;;;1.50;1.50;;;;;;;;;;5051470;28;20893;-73
2022/04/19 01:50:14;;;;;;;1.40;1.30;;;;;;;;;;5047113;28;20442;-73
2022/04/19 01:52:41;;;;;;;2.30;2.20;;;;;;;;;;5050385;28;20472;-73
2022/04/19 01:55:08;;;;;;;2.00;1.90;;;;;;;;;;5050860;28;20450;-72
2022/04/19 01:57:34;;;;;;;2.20;2.20;;;;;;;;;;5044141;28;20442;-72
2022/04/19 02:00:00;;;;;;;1.83;1.73;;;;;;;;;;5049772;28;20430;-75
2022/04/19 02:02:26;;;;;;;1.80;1.80;;;;;;;;;;5049081;28;20436;-72
2022/04/19 02:04:53;;;;;;;2.00;1.80;;;;;;;;;;5049229;28;20513;-73
2022/04/19 02:07:19;;;;;;;7.10;4.10;;;;;;;;;;5049735;28;20426;-73
2022/04/19 02:09:45;;;;;;;1.80;1.80;;;;;;;;;;5049100;28;20465;-73
2022/04/19 02:12:11;;;;;;;2.00;2.00;;;;;;;;;;5051946;28;20453;-73
2022/04/19 02:14:41;;;;;;;2.93;2.73;;;;;;;;;;5050263;28;20449;-73
2022/04/19 02:17:09;;;;;;;4.17;2.27;;;;;;;;;;5051545;28;20437;-73
2022/04/19 02:19:35;;;;;;;3.03;2.17;;;;;;;;;;5048842;28;20800;-73
2022/04/19 02:22:00;;;;;;;2.50;2.40;;;;;;;;;;5050783;28;20426;-73
2022/04/19 02:24:26;;;;;;;3.33;2.30;;;;;;;;;;5049409;28;20423;-73
2022/04/19 02:26:53;;;;;;;2.10;2.10;;;;;;;;;;5051233;28;20456;-73
2022/04/19 02:29:19;;;;;;;2.03;2.00;;;;;;;;;;5050287;28;20431;-73
2022/04/19 02:31:46;;;;;;;2.77;2.67;;;;;;;;;;5050541;28;20438;-73
2022/04/19 02:34:15;;;;;;;2.47;2.27;;;;;;;;;;5049862;28;20485;-73
2022/04/19 02:36:41;;;;;;;2.40;2.30;;;;;;;;;;5045066;28;20438;-73
2022/04/19 02:39:07;;;;;;;2.80;1.90;;;;;;;;;;5046449;28;20448;-73
2022/04/19 02:41:32;;;;;;;1.60;1.60;;;;;;;;;;5044964;28;20525;-73
2022/04/19 02:43:59;;;;;;;2.57;1.73;;;;;;;;;;5048061;28;20826;-73
2022/04/19 02:46:25;;;;;;;2.23;2.10;;;;;;;;;;5047175;28;20493;-73
2022/04/19 02:48:51;;;;;;;1.83;1.83;;;;;;;;;;5046590;28;20478;-73
2022/04/19 02:51:18;;;;;;;2.07;2.07;;;;;;;;;;5050539;28;20430;-73
2022/04/19 02:53:44;;;;;;;1.60;1.60;;;;;;;;;;5048867;28;20486;-73
2022/04/19 02:56:10;;;;;;;2.23;1.90;;;;;;;;;;5046457;28;20431;-73
2022/04/19 02:58:36;;;;;;;3.27;3.07;;;;;;;;;;5048066;28;20431;-73
2022/04/19 03:01:02;;;;;;;2.10;2.00;;;;;;;;;;5048251;28;20430;-73
2022/04/19 03:03:29;;;;;;;1.80;1.70;;;;;;;;;;5048869;28;20430;-73
2022/04/19 03:05:57;;;;;;;2.10;2.00;;;;;;;;;;5046340;28;20418;-73
2022/04/19 03:08:24;;;;;;;2.23;2.23;;;;;;;;;;5046898;28;20559;-73
2022/04/19 03:10:51;;;;;;;2.40;2.40;;;;;;;;;;5047397;28;20771;-73
2022/04/19 03:13:17;;;;;;;1.93;1.80;;;;;;;;;;5050327;28;20867;-73
2022/04/19 03:15:43;;;;;;;2.13;2.03;;;;;;;;;;5043586;28;20976;-73
2022/04/19 03:18:09;;;;;;;2.13;2.13;;;;;;;;;;5046510;28;20449;-73
2022/04/19 03:20:35;;;;;;;2.00;1.70;;;;;;;;;;5045430;28;20434;-74
2022/04/19 03:28:31;;;;;;;2.27;2.17;;;;;;;;;;5047409;28;20426;-73
2022/04/19 03:30:57;;;;;;;2.00;1.90;;;;;;;;;;5046335;28;20552;-73
2022/04/19 03:33:23;;;;;;;1.90;1.90;;;;;;;;;;5048356;28;20545;-73
2022/04/19 03:35:49;;;;;;;4.67;2.60;;;;;;;;;;5045033;28;20445;-73
2022/04/19 03:38:16;;;;;;;2.70;2.50;;;;;;;;;;5046896;28;20789;-73
2022/04/19 03:40:42;;;;;;;5.73;3.13;;;;;;;;;;5048487;28;20966;-73
2022/04/19 03:43:08;;;;;;;2.23;2.03;;;;;;;;;;5048305;28;20881;-73
2022/04/19 03:45:34;;;;;;;2.40;2.27;;;;;;;;;;5047958;28;20454;-74
2022/04/19 03:48:00;;;;;;;2.53;2.40;;;;;;;;;;5047812;28;20474;-72
2022/04/19 03:50:27;;;;;;;2.10;2.00;;;;;;;;;;5045774;28;20434;-73
2022/04/19 03:52:53;;;;;;;4.83;2.93;;;;;;;;;;5046626;28;20466;-73
2022/04/19 03:55:20;;;;;;;4.10;2.03;;;;;;;;;;5046849;28;20442;-73
2022/04/19 03:57:46;;;;;;;6.00;2.30;;;;;;;;;;5046108;28;20926;-73
2022/04/19 04:00:12;;;;;;;2.57;2.10;;;;;;;;;;5047579;28;20439;-73
2022/04/19 04:02:38;;;;;;;4.60;4.20;;;;;;;;;;5045242;28;20465;-73
2022/04/19 04:05:05;;;;;;;8.83;5.93;;;;;;;;;;5046226;28;20478;-73
2022/04/19 04:07:31;;;;;;;8.23;5.93;;;;;;;;;;5048942;28;20875;-73
2022/04/19 04:09:57;;;;;;;7.63;4.30;;;;;;;;;;5044137;28;20546;-73
2022/04/19 04:12:23;;;;;;;4.07;3.77;;;;;;;;;;5049635;28;20965;-75
2022/04/19 04:14:49;;;;;;;4.10;3.70;;;;;;;;;;5048937;28;20918;-73
2022/04/19 04:17:15;;;;;;;5.40;4.60;;;;;;;;;;5049310;28;20493;-73
2022/04/19 04:19:43;;;;;;;9.87;3.73;;;;;;;;;;5045576;28;21054;-73
2022/04/19 04:22:10;;;;;;;9.50;3.20;;;;;;;;;;5045502;28;20442;-73
2022/04/19 04:24:36;;;;;;;12.53;3.60;;;;;;;;;;5046061;28;20432;-73
2022/04/19 04:27:02;;;;;;;3.10;3.00;;;;;;;;;;5044171;28;20442;-73
2022/04/19 04:29:28;;;;;;;2.40;2.30;;;;;;;;;;5048466;28;20438;-72
2022/04/19 04:31:54;;;;;;;4.00;2.43;;;;;;;;;;5046447;28;20437;-73
2022/04/19 04:34:20;;;;;;;2.53;2.43;;;;;;;;;;5049503;28;20500;-73
2022/04/19 04:36:46;;;;;;;3.67;2.93;;;;;;;;;;5045468;28;20470;-73
2022/04/19 04:39:14;;;;;;;2.43;2.30;;;;;;;;;;5046668;28;20440;-73
2022/04/19 04:41:40;;;;;;;2.67;2.57;;;;;;;;;;5044006;28;20438;-73
2022/04/19 04:44:06;;;;;;;2.87;2.43;;;;;;;;;;5046722;28;20436;-73
2022/04/19 04:52:01;;;;;;;2.30;2.20;;;;;;;;;;5046477;28;20858;-73
2022/04/19 04:54:27;;;;;;;2.30;2.30;;;;;;;;;;5044552;28;20489;-73
2022/04/19 04:56:53;;;;;;;11.00;3.40;;;;;;;;;;5044605;28;20430;-73
2022/04/19 04:59:20;;;;;;;6.23;2.50;;;;;;;;;;5043762;28;20465;-73
2022/04/19 05:01:46;;;;;;;7.97;2.23;;;;;;;;;;5050218;28;20443;-73
2022/04/19 05:04:12;;;;;;;2.60;2.37;;;;;;;;;;5046830;28;20535;-74
2022/04/19 05:06:38;;;;;;;1.93;1.83;;;;;;;;;;5048661;28;20489;-72
2022/04/19 05:09:04;;;;;;;2.40;2.30;;;;;;;;;;5047880;28;20441;-73
2022/04/19 05:11:30;;;;;;;2.00;1.90;;;;;;;;;;5051222;28;20922;-73
2022/04/19 05:13:56;;;;;;;3.43;2.17;;;;;;;;;;5047931;28;20498;-73
2022/04/19 05:16:22;;;;;;;4.73;2.77;;;;;;;;;;5050647;28;20504;-73
2022/04/19 05:18:48;;;;;;;2.00;1.90;;;;;;;;;;5050170;28;20463;-73
2022/04/19 05:21:14;;;;;;;2.43;2.40;;;;;;;;;;5047991;28;20529;-73
2022/04/19 05:23:40;;;;;;;2.40;2.20;;;;;;;;;;5048332;28;20435;-73
2022/04/19 05:26:06;;;;;;;3.23;2.53;;;;;;;;;;5047963;28;20426;-73
2022/04/19 05:28:32;;;;;;;3.40;2.23;;;;;;;;;;5046706;28;20522;-73
2022/04/19 05:30:58;;;;;;;2.10;2.00;;;;;;;;;;5047027;28;20986;-73
2022/04/19 05:33:24;;;;;;;2.10;2.00;;;;;;;;;;5051096;28;20576;-73
2022/04/19 05:35:51;;;;;;;2.53;2.37;;;;;;;;;;5045190;28;20942;-73
2022/04/19 05:38:17;;;;;;;2.50;2.40;;;;;;;;;;5050593;28;20433;-73
2022/04/19 05:40:43;;;;;;;3.07;2.47;;;;;;;;;;5051348;28;20521;-73
2022/04/19 05:43:09;;;;;;;3.13;2.87;;;;;;;;;;5047355;28;20789;-72
2022/04/19 05:45:35;;;;;;;8.00;4.10;;;;;;;;;;5047934;28;20446;-73
2022/04/19 05:48:01;;;;;;;2.23;2.10;;;;;;;;;;5045748;28;20464;-73
2022/04/19 05:50:27;;;;;;;6.13;3.97;;;;;;;;;;5049109;28;20550;-73
2022/04/19 05:52:53;;;;;;;12.10;3.50;;;;;;;;;;5047322;28;20496;-73
2022/04/19 05:55:19;;;;;;;29.10;4.10;;;;;;;;;;5048004;28;20446;-73
2022/04/19 05:57:45;;;;;;;18.00;3.93;;;;;;;;;;5047423;28;20939;-73
2022/04/19 06:00:11;;;;;;;17.23;5.40;;;;;;;;;;5040387;28;20474;-73
2022/04/19 06:05:22;;;;;;;15.33;3.80;;;;;;;;;;5050962;28;20425;-73
2022/04/19 06:07:48;;;;;;;15.93;3.13;;;;;;;;;;5046070;28;20445;-73
2022/04/19 06:10:15;;;;;;;17.47;2.90;;;;;;;;;;5049557;28;20796;-73
2022/04/19 06:12:41;;;;;;;7.33;2.50;;;;;;;;;;5042728;28;20487;-73
2022/04/19 06:15:08;;;;;;;4.33;2.80;;;;;;;;;;5049089;28;20430;-73
2022/04/19 06:17:35;;;;;;;12.40;2.97;;;;;;;;;;5049734;28;20432;-73
2022/04/19 06:20:02;;;;;;;4.43;2.50;;;;;;;;;;5049265;28;20435;-73
2022/04/19 06:22:29;;;;;;;6.03;2.30;;;;;;;;;;5049939;28;20486;-73
2022/04/19 06:24:57;;;;;;;7.73;2.17;;;;;;;;;;5040189;28;20925;-73
2022/04/19 06:27:24;;;;;;;8.00;2.87;;;;;;;;;;5047228;28;20430;-73
2022/04/19 06:29:52;;;;;;;2.17;2.07;;;;;;;;;;5048735;28;20453;-73
2022/04/19 06:32:18;;;;;;;3.00;2.80;;;;;;;;;;5048573;28;20450;-74
2022/04/19 06:34:44;;;;;;;2.53;2.43;;;;;;;;;;5047669;28;20500;-74
2022/04/19 06:37:10;;;;;;;1.97;1.87;;;;;;;;;;5048994;28;20434;-73
2022/04/19 06:39:36;;;;;;;3.50;1.97;;;;;;;;;;5047509;28;20459;-73
2022/04/19 06:42:02;;;;;;;2.00;2.00;;;;;;;;;;5050956;28;20443;-73
2022/04/19 06:44:29;;;;;;;2.30;2.17;;;;;;;;;;5046530;28;20442;-72
2022/04/19 06:46:55;;;;;;;1.87;1.77;;;;;;;;;;5047134;28;20434;-73
2022/04/19 06:49:20;;;;;;;1.20;1.20;;;;;;;;;;5045774;28;21018;-73
2022/04/19 06:51:48;;;;;;;1.30;1.30;;;;;;;;;;5048592;28;20466;-73
2022/04/19 06:54:15;;;;;;;1.50;1.50;;;;;;;;;;5046444;28;20486;-73
2022/04/19 06:56:41;;;;;;;2.47;1.60;;;;;;;;;;5042723;28;20518;-73
2022/04/19 06:59:10;;;;;;;1.60;1.50;;;;;;;;;;5048315;28;20567;-75
2022/04/19 07:01:38;;;;;;;2.30;2.20;;;;;;;;;;5047245;28;20461;-74
2022/04/19 07:04:04;;;;;;;2.33;1.90;;;;;;;;;;5047012;28;20430;-72
2022/04/19 07:06:30;;;;;;;1.67;1.67;;;;;;;;;;5047357;28;20458;-72
2022/04/19 07:08:56;;;;;;;1.70;1.50;;;;;;;;;;5044324;28;20480;-73
2022/04/19 07:11:22;;;;;;;2.13;2.00;;;;;;;;;;5047662;28;20480;-73
2022/04/19 07:13:48;;;;;;;1.97;1.83;;;;;;;;;;5050269;28;20572;-73
2022/04/19 07:16:14;;;;;;;1.60;1.60;;;;;;;;;;5047255;28;20567;-73
2022/04/19 07:18:40;;;;;;;1.70;1.60;;;;;;;;;;5044684;28;20442;-73
2022/04/19 07:26:38;;;;;;;1.33;1.33;;;;;;;;;;5046469;28;20867;-73
2022/04/19 07:29:14;;;;;;;1.33;1.33;;;;;;;;;;5044511;28;20525;-65
2022/04/19 07:31:41;;;;;;;1.77;1.67;;;;;;;;;;5049832;28;20430;-72
2022/04/19 07:34:07;;;;;;;2.33;1.93;;;;;;;;;;5047629;28;20481;-72
2022/04/19 07:36:35;;;;;;;2.53;1.50;;;;;;;;;;5048711;28;20434;-73
2022/04/19 07:39:03;;;;;;;1.30;1.30;;;;;;;;;;5044489;28;20587;-73
2022/04/19 07:41:30;;;;;;;1.83;1.73;;;;;;;;;;5050076;28;20434;-73
2022/04/19 07:43:55;;;;;;;1.30;1.30;;;;;;;;;;5047023;28;20446;-76
2022/04/19 07:46:21;;;;;;;4.63;1.90;;;;;;;;;;5046891;28;20537;-72
2022/04/19 07:48:51;;;;;;;1.63;1.53;;;;;;;;;;5045677;28;20488;-73
2022/04/19 07:51:17;;;;;;;2.00;1.90;;;;;;;;;;5043018;28;20527;-75
2022/04/19 07:53:42;;;;;;;1.60;1.27;;;;;;;;;;5048808;28;21069;-74
2022/04/19 07:56:09;;;;;;;1.60;1.60;;;;;;;;;;5045897;28;20441;-73
2022/04/19 07:58:35;;;;;;;4.67;2.07;;;;;;;;;;5048593;28;20946;-72
2022/04/19 08:01:01;;;;;;;1.43;1.43;;;;;;;;;;5043869;28;20438;-71
2022/04/19 08:03:27;;;;;;;1.83;1.50;;;;;;;;;;5047992;28;20432;-77
2022/04/19 08:05:53;;;;;;;2.30;1.63;;;;;;;;;;5047632;28;20445;-77
2022/04/19 08:08:21;;;;;;;1.50;1.50;;;;;;;;;;5047016;28;20442;-74
2022/04/19 08:10:48;;;;;;;1.30;1.30;;;;;;;;;;5044670;28;20419;-76
2022/04/19 08:13:15;;;;;;;2.93;1.63;;;;;;;;;;5046283;28;21036;-74
2022/04/19 08:15:41;;;;;;;1.43;1.30;;;;;;;;;;5047189;28;20483;-74
2022/04/19 08:18:11;;;;;;;1.63;1.53;;;;;;;;;;5048682;28;20419;-73
2022/04/19 08:20:37;;;;;;;1.57;1.57;;;;;;;;;;5039264;28;20504;-78
2022/04/19 08:23:03;;;;;;;1.47;1.37;;;;;;;;;;5036331;28;20478;-72
2022/04/19 08:25:30;;;;;;;1.53;1.53;;;;;;;;;;5044993;28;20446;-72
2022/04/19 08:27:56;;;;;;;1.50;1.40;;;;;;;;;;5042211;28;21143;-74
2022/04/19 08:30:22;;;;;;;3.07;1.70;;;;;;;;;;5045855;28;20449;-74
2022/04/19 08:32:48;;;;;;;1.97;1.63;;;;;;;;;;5046244;28;20478;-74
2022/04/19 08:35:14;;;;;;;2.73;2.50;;;;;;;;;;5036127;28;20442;-73
2022/04/19 08:37:40;;;;;;;1.40;1.30;;;;;;;;;;5044310;28;20465;-73
2022/04/19 08:40:08;;;;;;;2.17;1.67;;;;;;;;;;5045966;28;20461;-72
2022/04/19 08:42:36;;;;;;;1.73;1.73;;;;;;;;;;5045177;28;20521;-73
2022/04/19 08:45:04;;;;;;;1.97;1.87;;;;;;;;;;5044406;28;20495;-72
2022/04/19 08:47:33;;;;;;;2.13;1.93;;;;;;;;;;5040156;28;20439;-73
2022/04/19 08:50:04;;;;;;;1.20;1.20;;;;;;;;;;5044317;28;20978;-72
2022/04/19 08:52:30;;;;;;;2.73;1.70;;;;;;;;;;5046816;28;20430;-72
2022/04/19 08:57:40;;;;;;;1.77;1.67;;;;;;;;;;5047646;28;20401;-72
2022/04/19 09:00:07;;;;;;;2.93;1.77;;;;;;;;;;5041738;28;20446;-73
2022/04/19 09:02:33;;;;;;;9.23;2.60;;;;;;;;;;5044740;28;20437;-73
2022/04/19 09:05:18;;;;;;;3.00;2.33;;;;;;;;;;5039380;28;20949;-73
2022/04/19 09:07:45;;;;;;;2.10;2.00;;;;;;;;;;5033552;28;22004;-72
2022/04/19 09:10:14;;;;;;;2.10;2.10;;;;;;;;;;5032676;28;22045;-73
2022/04/19 09:12:55;;;;;;;7.90;2.73;;;;;;;;;;5036167;28;20442;-73
2022/04/19 09:15:21;;;;;;;4.33;4.07;;;;;;;;;;5031554;28;20461;-73
2022/04/19 09:17:48;;;;;;;3.93;2.50;;;;;;;;;;5041154;28;20457;-72
2022/04/19 09:20:20;;;;;;;2.00;1.90;;;;;;;;;;5042249;28;21229;-74
2022/04/19 09:22:48;;;;;;;2.60;2.50;;;;;;;;;;5043681;28;20431;-74
2022/04/19 09:25:24;;;;;;;1.93;1.83;;;;;;;;;;5039588;28;20462;-74
2022/04/19 09:27:50;;;;;;;4.03;2.67;;;;;;;;;;5032862;28;20441;-73
2022/04/19 09:30:18;;;;;;;2.57;2.47;;;;;;;;;;5039732;28;20950;-74
2022/04/19 09:33:03;;;;;;;2.20;2.10;;;;;;;;;;5051414;28;20442;-74
2022/04/19 09:35:48;;;;;;;1.90;1.80;;;;;;;;;;5044697;28;20439;-74
2022/04/19 09:38:15;;;;;;;2.70;2.50;;;;;;;;;;5046810;28;20442;-74
2022/04/19 09:40:42;;;;;;;1.77;1.73;;;;;;;;;;5042578;28;20423;-73
2022/04/19 09:43:21;;;;;;;1.93;1.93;;;;;;;;;;5035855;28;20447;-74
2022/04/19 09:45:50;;;;;;;4.00;2.20;;;;;;;;;;5040741;28;20945;-74
2022/04/19 09:48:20;;;;;;;1.30;1.30;;;;;;;;;;5046358;28;20648;-73
2022/04/19 09:50:50;;;;;;;2.90;2.73;;;;;;;;;;5040978;28;20521;-73
2022/04/19 09:53:20;;;;;;;2.40;2.30;;;;;;;;;;5041607;28;21000;-74
2022/04/19 09:55:47;;;;;;;2.20;2.00;;;;;;;;;;5048146;28;20458;-68
2022/04/19 09:58:14;;;;;;;3.10;2.97;;;;;;;;;;5043690;28;20580;-73
2022/04/19 10:00:40;;;;;;;3.00;2.70;;;;;;;;;;5045322;28;20492;-74
2022/04/19 10:08:38;;;;;;;3.43;2.60;;;;;;;;;;5048696;28;20441;-62
2022/04/19 10:11:04;;;;;;;4.83;2.50;;;;;;;;;;5042159;28;20448;-75
2022/04/19 10:13:32;;;;;;;2.80;2.60;;;;;;;;;;5045799;28;21042;-75
2022/04/19 10:15:59;;;;;;;2.90;2.30;;;;;;;;;;5039150;28;20529;-74
2022/04/19 10:18:25;;;;;;;3.13;2.60;;;;;;;;;;5044446;28;20457;-75
2022/04/19 10:20:53;;;;;;;2.20;2.00;;;;;;;;;;5044592;28;20442;-76
2022/04/19 10:23:19;;;;;;;2.27;2.17;;;;;;;;;;5051826;28;20418;-75
2022/04/19 10:25:48;;;;;;;2.43;2.33;;;;;;;;;;5041642;28;20451;-75
2022/04/19 10:28:15;;;;;;;3.93;3.70;;;;;;;;;;5044345;28;21841;-75
2022/04/19 10:30:48;;;;;;;2.80;2.70;;;;;;;;;;5045761;28;20477;-73
2022/04/19 10:33:33;;;;;;;2.93;2.83;;;;;;;;;;5044472;28;20586;-74
2022/04/19 10:36:18;;;;;;;2.80;2.60;;;;;;;;;;5042384;28;20438;-74
2022/04/19 10:38:45;;;;;;;2.47;2.27;;;;;;;;;;5046901;28;20465;-73
2022/04/19 10:41:11;;;;;;;2.60;2.50;;;;;;;;;;5048905;28;21057;-73
2022/04/19 10:43:37;;;;;;;2.30;2.20;;;;;;;;;;5049907;28;20509;-73
2022/04/19 10:46:22;;;;;;;2.43;2.33;;;;;;;;;;5034035;28;20505;-73
2022/04/19 10:49:07;;;;;;;4.07;3.80;;;;;;;;;;5048487;28;20465;-74
2022/04/19 10:51:33;;;;;;;1.70;1.60;;;;;;;;;;5044227;28;20488;-74
2022/04/19 10:53:59;;;;;;;1.90;1.90;;;;;;;;;;5044360;28;20481;-73
2022/04/19 10:56:25;;;;;;;5.07;2.63;;;;;;;;;;5043690;28;20449;-73
2022/04/19 10:58:52;;;;;;;1.10;1.10;;;;;;;;;;5044835;28;20487;-75
2022/04/19 11:01:29;;;;;;;2.00;1.97;;;;;;;;;;5039454;28;20967;-74
2022/04/19 11:03:56;;;;;;;5.10;2.40;;;;;;;;;;5042190;28;20439;-74
2022/04/19 11:06:31;;;;;;;2.60;2.03;;;;;;;;;;5042635;28;20453;-72
2022/04/19 11:09:14;;;;;;;2.60;2.40;;;;;;;;;;5045563;28;20414;-74
2022/04/19 11:11:47;;;;;;;2.03;1.90;;;;;;;;;;5041579;28;20446;-73
2022/04/19 11:14:16;;;;;;;2.17;2.10;;;;;;;;;;5046325;28;20490;-74
2022/04/19 11:16:43;;;;;;;1.73;1.60;;;;;;;;;;5048690;28;20431;-74
2022/04/19 11:19:19;;;;;;;1.73;1.73;;;;;;;;;;5047106;28;20941;-73
2022/04/19 11:21:48;;;;;;;3.10;1.43;;;;;;;;;;5037031;28;20430;-76
2022/04/19 11:24:34;;;;;;;1.60;1.50;;;;;;;;;;5047688;28;20503;-74
2022/04/19 11:27:00;;;;;;;1.70;1.60;;;;;;;;;;5044793;28;20484;-74
2022/04/19 11:29:26;;;;;;;0.80;0.80;;;;;;;;;;5049586;28;20337;-74
2022/04/19 11:31:52;;;;;;;1.70;1.60;;;;;;;;;;5048867;28;20481;-74
2022/04/19 11:34:18;;;;;;;1.27;1.27;;;;;;;;;;5038980;28;20842;-72
2022/04/19 11:36:44;;;;;;;9.40;2.10;;;;;;;;;;5042629;28;20527;-73
2022/04/19 11:46:44;;;;;;;1.10;1.10;;;;;;;;;;5042014;28;21062;-73
2022/04/19 11:47:50;;;;;;;1.37;1.37;;;;;;;;;;5038841;28;20716;-71
2022/04/19 11:50:32;;;;;;;2.87;2.03;;;;;;;;;;5043778;28;20792;-69
2022/04/19 11:52:58;;;;;;;1.30;1.30;;;;;;;;;;5036410;28;20481;-72
2022/04/19 11:55:28;;;;;;;1.57;1.57;;;;;;;;;;5040194;28;20487;-74
2022/04/19 11:58:09;;;;;;;0.93;0.93;;;;;;;;;;5049129;28;20422;-75
2022/04/19 12:00:36;;;;;;;1.00;1.00;;;;;;;;;;5044336;28;20438;-75
2022/04/19 12:03:02;;;;;;;1.20;1.20;;;;;;;;;;5048105;28;20841;-75
2022/04/19 12:05:30;;;;;;;1.97;1.30;;;;;;;;;;5048799;28;20454;-73
2022/04/19 12:07:56;;;;;;;0.97;0.97;;;;;;;;;;5049347;28;20472;-75
2022/04/19 12:10:23;;;;;;;0.90;0.90;;;;;;;;;;5036883;28;20477;-78
2022/04/19 12:12:49;;;;;;;0.80;0.80;;;;;;;;;;5042354;28;20987;-75
2022/04/19 12:15:34;;;;;;;0.73;0.73;;;;;;;;;;5043842;28;21039;-74
2022/04/19 12:18:00;;;;;;;1.20;1.20;;;;;;;;;;5041232;28;20449;-73
2022/04/19 12:20:26;;;;;;;0.90;0.90;;;;;;;;;;5039639;28;20424;-73
2022/04/19 12:22:52;;;;;;;0.93;0.93;;;;;;;;;;5047163;28;20442;-73
2022/04/19 12:25:22;;;;;;;0.83;0.83;;;;;;;;;;5043814;28;20445;-74
2022/04/19 12:27:51;;;;;;;3.27;2.13;;;;;;;;;;5048431;28;20441;-78
2022/04/19 12:30:17;;;;;;;1.90;0.90;;;;;;;;;;5047438;28;20521;-74
2022/04/19 12:32:52;;;;;;;1.80;1.70;;;;;;;;;;5043753;28;20922;-74
2022/04/19 12:35:22;;;;;;;1.53;1.03;;;;;;;;;;5049566;28;20524;-77
2022/04/19 12:38:04;;;;;;;0.53;0.53;;;;;;;;;;5036789;28;20910;-76
2022/04/19 12:40:30;;;;;;;1.00;1.00;;;;;;;;;;5043702;28;20461;-73
2022/04/19 12:42:55;;;;;;;1.43;1.33;;;;;;;;;;5047264;28;20426;-73
2022/04/19 12:45:22;;;;;;;0.80;0.80;;;;;;;;;;5039160;28;20518;-75
2022/04/19 12:47:49;;;;;;;0.80;0.70;;;;;;;;;;5042778;28;20469;-73
2022/04/19 12:50:19;;;;;;;0.70;0.70;;;;;;;;;;5040836;28;20454;-74
2022/04/19 12:52:45;;;;;;;1.00;0.93;;;;;;;;;;5038000;28;20433;-74
2022/04/19 12:55:11;;;;;;;2.97;0.83;;;;;;;;;;5047543;28;20532;-76
2022/04/19 12:57:41;;;;;;;1.00;1.00;;;;;;;;;;5040056;28;20426;-76
2022/04/19 13:00:09;;;;;;;1.47;1.47;;;;;;;;;;5047374;28;20492;-76
2022/04/19 13:02:35;;;;;;;0.63;0.63;;;;;;;;;;5047912;28;20426;-75
2022/04/19 13:05:02;;;;;;;0.90;0.90;;;;;;;;;;5049205;28;20423;-77
2022/04/19 13:12:53;;;;;;;1.03;1.03;;;;;;;;;;5048753;28;20533;-75
2022/04/19 13:15:19;;;;;;;3.70;1.10;;;;;;;;;;5046462;28;20445;-76
2022/04/19 13:17:45;;;;;;;0.70;0.70;;;;;;;;;;5047819;28;20438;-78
2022/04/19 13:20:11;;;;;;;3.53;1.20;;;;;;;;;;5045386;28;20496;-76
2022/04/19 13:22:37;;;;;;;0.80;0.80;;;;;;;;;;5047416;28;20466;-78
2022/04/19 13:25:04;;;;;;;1.20;0.87;;;;;;;;;;5050927;28;20438;-76
2022/04/19 13:27:33;;;;;;;0.60;0.60;;;;;;;;;;5052198;28;20426;-75
2022/04/19 13:30:00;;;;;;;2.70;0.70;;;;;;;;;;5047153;28;20512;-74
2022/04/19 13:32:26;;;;;;;1.80;0.70;;;;;;;;;;5050495;28;20496;-72
2022/04/19 13:34:52;;;;;;;0.80;0.80;;;;;;;;;;5052855;28;20489;-75
2022/04/19 13:38:23;;;;;;;0.73;0.73;;;;;;;;;;5052252;28;20454;-73
2022/04/19 13:40:04;;;;;;;0.73;0.73;;;;;;;;;;5049709;28;20492;-76
2022/04/19 13:42:30;;;;;;;1.03;0.77;;;;;;;;;;5046946;28;20529;-74
2022/04/19 13:44:56;;;;;;;0.60;0.60;;;;;;;;;;5051554;28;20521;-74
2022/04/19 13:47:23;;;;;;;0.87;0.87;;;;;;;;;;5050616;28;20430;-73
2022/04/19 13:49:49;;;;;;;0.80;0.80;;;;;;;;;;5048657;28;20478;-75
2022/04/19 13:52:15;;;;;;;1.70;1.00;;;;;;;;;;5046846;28;20437;-77
2022/04/19 13:54:41;;;;;;;1.00;0.90;;;;;;;;;;5048060;28;20488;-74
2022/04/19 13:57:08;;;;;;;2.23;0.73;;;;;;;;;;5049836;28;20796;-76
2022/04/19 13:59:34;;;;;;;1.00;1.00;;;;;;;;;;5049976;28;20457;-76
2022/04/19 14:02:00;;;;;;;1.07;1.07;;;;;;;;;;5043886;28;20852;-76
2022/04/19 14:04:26;;;;;;;0.80;0.80;;;;;;;;;;5045070;28;21042;-80
2022/04/19 14:06:53;;;;;;;0.77;0.77;;;;;;;;;;5038054;28;21506;-76
2022/04/19 14:09:19;;;;;;;0.80;0.80;;;;;;;;;;5047888;28;20179;-74
2022/04/19 14:11:45;;;;;;;1.03;1.03;;;;;;;;;;5048516;28;20466;-73
2022/04/19 14:14:11;;;;;;;0.80;0.80;;;;;;;;;;5049207;28;20485;-73
2022/04/19 14:16:37;;;;;;;1.00;1.00;;;;;;;;;;5049426;28;20430;-73
2022/04/19 14:19:04;;;;;;;3.50;0.67;;;;;;;;;;5044364;28;20442;-73
2022/04/19 14:21:30;;;;;;;1.00;1.00;;;;;;;;;;5047513;28;20857;-75
2022/04/19 14:23:56;;;;;;;1.00;0.90;;;;;;;;;;5049341;28;20457;-72
2022/04/19 14:26:22;;;;;;;0.83;0.83;;;;;;;;;;5050760;28;20518;-73
2022/04/19 14:34:17;;;;;;;0.63;0.63;;;;;;;;;;5050953;28;20477;-74
2022/04/19 14:36:43;;;;;;;2.83;1.10;;;;;;;;;;5045981;28;20806;-76
2022/04/19 14:39:09;;;;;;;0.53;0.53;;;;;;;;;;5049392;28;20450;-78
2022/04/19 14:41:35;;;;;;;0.50;0.50;;;;;;;;;;5043901;28;20491;-78
2022/04/19 14:44:01;;;;;;;0.63;0.63;;;;;;;;;;5048089;28;20850;-77
2022/04/19 14:46:27;;;;;;;0.80;0.80;;;;;;;;;;5051164;28;20422;-75
2022/04/19 14:48:53;;;;;;;1.10;1.10;;;;;;;;;;5051276;28;20697;-76
2022/04/19 14:54:04;;;;;;;2.37;0.80;;;;;;;;;;5046816;28;20496;-77
2022/04/19 14:56:30;;;;;;;3.27;0.90;;;;;;;;;;5049230;28;20429;-76
2022/04/19 14:58:56;;;;;;;0.83;0.83;;;;;;;;;;5051150;28;20950;-78
2022/04/19 15:01:22;;;;;;;1.00;1.00;;;;;;;;;;5051072;28;20454;-79
2022/04/19 15:03:48;;;;;;;1.60;1.00;;;;;;;;;;5044559;28;20492;-74
2022/04/19 15:06:14;;;;;;;1.20;1.20;;;;;;;;;;5048357;28;20839;-75
2022/04/19 15:08:40;;;;;;;1.70;1.30;;;;;;;;;;5051223;28;20430;-76
2022/04/19 15:11:07;;;;;;;5.40;0.83;;;;;;;;;;5047966;28;20813;-75
2022/04/19 15:13:33;;;;;;;1.20;1.20;;;;;;;;;;5048021;28;20477;-76
2022/04/19 15:15:59;;;;;;;2.77;0.87;;;;;;;;;;5049188;28;20446;-76
2022/04/19 15:18:25;;;;;;;0.80;0.80;;;;;;;;;;5050668;28;20960;-77
2022/04/19 15:20:52;;;;;;;0.93;0.93;;;;;;;;;;5050760;28;20513;-78
2022/04/19 15:23:18;;;;;;;1.73;1.30;;;;;;;;;;5048881;28;20419;-73
2022/04/19 15:25:44;;;;;;;1.07;0.97;;;;;;;;;;5041832;28;20445;-75
2022/04/19 15:28:10;;;;;;;3.50;1.13;;;;;;;;;;5050457;28;20781;-73
2022/04/19 15:30:37;;;;;;;1.90;1.03;;;;;;;;;;5048901;28;20496;-75
2022/04/19 15:33:03;;;;;;;0.70;0.70;;;;;;;;;;5050461;28;20473;-78
2022/04/19 15:35:29;;;;;;;1.10;1.10;;;;;;;;;;5048002;28;20580;-77